Database: COMPET-N - COOP - 3PL - 4PL - CNDOOM

WAD: Doom | Doom 2 | TNT | Plutonia | AV | HR | Scythe | MM | MM2 | Requiem | CE
Category: speed | nmare | max | nm100s | tyson | pacifist | fast | respawn | nomo | misc | built | all
Highscore: ALL | IWAD | PWAD | Country | Continent

< Previous map       Next map >
Remove: wad | map | category | player | allMAP02
MapPlayerTimeDateFilenameCommentsDL
MAP02: Well of SoulsVincent Catalaa50.002001-11-12pl02-050.zip - 257
MAP02: Well of SoulsDrew DeVore53.002001-10-16pl02-053.zip - 144
MAP02: Well of SoulsVincent Catalaa54.001999-10-27pl02-054.zip - 166
MAP02: Well of SoulsMarijo Sedlić55.001999-10-24pl02-055.zip - 161
MAP02: Well of SoulsYonatan Donner57.001997-02-22pl02-057.zip - 134
MAP02: Well of SoulsAndreas Kren59.001997-03-02pl02-059.zip - 113
MAP02: Well of SoulsKunkun 1:03.002013-05-09pn02-103.zip - 262
MAP02: Well of SoulsJim Leonard1:22.002002-10-17pn02-122.zip - 178
MAP02: Well of SoulsVincent Catalaa1:26.002000-12-14pn02-126.zip - 137
MAP02: Well of SoulsAdam Hegyi1:40.002000-12-18pn02-140.zip - 132
MAP02: Well of SoulsChris Ratcliff2:26.002000-12-10pn02-226.zip - 144
MAP02: Well of SoulsAndreas Kren4:30.001997-03-01pl02-nm.zip - 108
MAP02: Well of SoulsWim Vanrie2:20.002007-09-21pl02-220.zip - 330
MAP02: Well of SoulsJim Leonard2:22.002005-07-02pl02-222.zip - 184
MAP02: Well of SoulsAdolf Vojta2:28.002002-07-18pl02-228.zip - 175
MAP02: Well of SoulsHenning Skogsto2:42.001998-10-20pl02-242.zip - 149
MAP02: Well of SoulsYonatan Donner3:16.001997-01-31pl02-316.zip - 105
MAP02: Well of SoulsVdgg 9:27.032017-12-16pt02-927.zip - 380
MAP02: Well of SoulsVdgg 11:41.002014-06-30pt021141.zip - 261
MAP02: Well of SoulsJim Leonard20:34.002002-01-25pt022034.zip - 181
MAP02: Well of SoulsVincent Catalaa50.002001-11-12pl02-050.zip - 256
MAP02: Well of SoulsAdam Williamson58.002001-12-19pp02-058.zip - 162
MAP02: Well of SoulsVincent Catalaa1:13.002001-11-15pp02-113.zip - 141
MAP02: Well of SoulsJim Leonard2:55.002002-08-17pf02-255.zip - 269
MAP02: Well of SoulsChris Ratcliff3:12.002002-04-20pf02-312.zip - 180
MAP02: Well of SoulsJim Leonard3:37.002002-04-16pf02-337.zip - 155
MAP02: Well of SoulsChris Ratcliff3:52.002001-07-21pf02-352.zip - 168
MAP02: Well of SoulsKai-Uwe Humpert4:49.001997-01-12plt02-gm.zip - 142
MAP02: Well of SoulsAdolf Vojta1:54.002003-03-12pr02-154.zip - 250
MAP02: Well of SoulsJim Leonard2:15.002002-08-08pr02-215.zip - 196
MAP02: Well of SoulsChris Ratcliff3:31.002001-11-24pr02-331.zip - 152
Remove: wad | map | category | player | all